createdAt,value
2018-02-09T00:01:08.709Z,87.60
2018-02-09T00:03:37.140Z,87.10
2018-02-09T00:06:05.559Z,87.20
2018-02-09T00:08:33.867Z,87.10
2018-02-09T00:11:02.240Z,87.50
2018-02-09T00:13:30.544Z,88.00
2018-02-09T00:15:59.691Z,88.40
2018-02-09T00:18:28.751Z,88.50
2018-02-09T00:20:57.145Z,88.50
2018-02-09T00:23:25.473Z,88.70
2018-02-09T00:25:53.791Z,88.90
2018-02-09T00:28:22.101Z,88.80
2018-02-09T00:30:50.706Z,89.40
2018-02-09T00:33:18.997Z,89.10
2018-02-09T00:35:47.296Z,89.10
2018-02-09T00:38:15.641Z,89.60
2018-02-09T00:40:43.956Z,89.60
2018-02-09T00:43:12.293Z,89.90
2018-02-09T00:45:40.611Z,90.20
2018-02-09T00:48:09.048Z,90.50
2018-02-09T00:50:37.345Z,90.60
2018-02-09T00:53:05.637Z,90.70
2018-02-09T00:55:33.980Z,91.30
2018-02-09T00:58:02.297Z,91.90
2018-02-09T01:00:30.644Z,92.30
2018-02-09T01:02:59.713Z,92.60
2018-02-09T01:05:28.083Z,92.60
2018-02-09T01:07:56.425Z,92.50
2018-02-09T01:10:25.484Z,92.20
2018-02-09T01:12:53.848Z,92.10
2018-02-09T01:15:22.176Z,92.00
2018-02-09T01:17:50.516Z,92.10
2018-02-09T01:20:19.585Z,92.10
2018-02-09T01:22:47.921Z,92.10
2018-02-09T01:25:16.256Z,91.50
2018-02-09T01:27:44.561Z,91.50
2018-02-09T01:30:12.899Z,91.60
2018-02-09T01:32:41.260Z,90.80
2018-02-09T01:35:10.368Z,90.40
2018-02-09T01:37:38.660Z,90.30
2018-02-09T01:40:07.759Z,90.00
2018-02-09T01:42:36.831Z,89.40
2018-02-09T01:45:05.158Z,89.30
2018-02-09T01:47:33.455Z,89.40
2018-02-09T01:50:16.505Z,89.80
2018-02-09T01:52:45.603Z,89.10
2018-02-09T01:55:14.708Z,88.90
2018-02-09T01:57:43.056Z,88.90
2018-02-09T02:00:11.382Z,88.40
2018-02-09T02:02:40.451Z,89.70
2018-02-09T02:05:08.769Z,88.80
2018-02-09T02:07:37.132Z,89.00
2018-02-09T02:10:05.436Z,88.00
2018-02-09T02:12:33.875Z,88.40
2018-02-09T02:15:02.944Z,88.60
2018-02-09T02:17:31.282Z,88.60
2018-02-09T02:19:59.610Z,88.70
2018-02-09T02:22:27.905Z,88.70
2018-02-09T02:24:56.228Z,88.40
2018-02-09T02:27:24.581Z,88.40
2018-02-09T02:29:53.004Z,88.80
2018-02-09T02:32:21.315Z,89.00
2018-02-09T02:34:50.380Z,88.80
2018-02-09T02:37:18.713Z,88.70
2018-02-09T02:39:47.808Z,88.80
2018-02-09T02:42:16.973Z,90.20
2018-02-09T02:44:45.339Z,89.10
2018-02-09T02:47:13.631Z,89.80
2018-02-09T02:49:41.957Z,89.30
2018-02-09T02:52:10.269Z,89.60
2018-02-09T02:54:38.940Z,89.50
2018-02-09T02:57:07.241Z,89.70
2018-02-09T02:59:35.537Z,89.30
2018-02-09T03:02:03.879Z,89.40
2018-02-09T03:04:32.203Z,89.60
2018-02-09T03:07:00.520Z,89.90
2018-02-09T03:09:28.824Z,90.00
2018-02-09T03:11:57.927Z,89.30
2018-02-09T03:14:26.986Z,89.20
2018-02-09T03:16:55.314Z,89.20
2018-02-09T03:19:23.628Z,89.40
2018-02-09T03:21:51.948Z,89.20
2018-02-09T03:24:20.379Z,88.60
2018-02-09T03:26:48.675Z,88.60
2018-02-09T03:29:17.007Z,89.10
2018-02-09T03:31:45.322Z,88.00
2018-02-09T03:34:13.797Z,88.20
2018-02-09T03:36:42.113Z,88.00
2018-02-09T03:39:10.428Z,88.80
2018-02-09T03:41:38.831Z,88.80
2018-02-09T03:44:07.892Z,89.20
2018-02-09T03:46:36.208Z,89.30
2018-02-09T03:49:04.504Z,87.80
2018-02-09T03:51:32.832Z,87.70
2018-02-09T03:54:01.179Z,88.90
2018-02-09T03:56:29.525Z,89.80
2018-02-09T03:58:57.819Z,89.30
2018-02-09T04:01:26.199Z,89.20
2018-02-09T04:03:54.521Z,88.90
2018-02-09T04:06:22.820Z,88.90
2018-02-09T04:08:51.167Z,85.40
2018-02-09T04:11:19.460Z,86.10
2018-02-09T04:13:47.796Z,86.90
2018-02-09T04:16:16.105Z,86.60
2018-02-09T04:18:45.303Z,84.60
2018-02-09T04:21:14.397Z,83.80
2018-02-09T04:23:42.696Z,83.80
2018-02-09T04:26:11.035Z,84.20
2018-02-09T04:28:39.329Z,84.00
2018-02-09T04:31:07.681Z,85.70
2018-02-09T04:33:35.980Z,86.70
2018-02-09T04:36:04.289Z,87.40
2018-02-09T04:38:32.889Z,88.60
2018-02-09T04:41:01.188Z,89.40
2018-02-09T04:43:29.480Z,87.70
2018-02-09T04:45:57.839Z,87.50
2018-02-09T04:48:26.140Z,88.10
2018-02-09T04:50:54.477Z,88.10
2018-02-09T04:53:22.772Z,88.30
2018-02-09T04:55:51.116Z,88.10
2018-02-09T04:58:19.490Z,88.90
2018-02-09T05:00:47.868Z,88.50
2018-02-09T05:03:16.161Z,89.10
2018-02-09T05:05:44.499Z,88.80
2018-02-09T05:08:12.814Z,89.80
2018-02-09T05:10:41.407Z,89.60
2018-02-09T05:13:09.697Z,90.00
2018-02-09T05:15:37.993Z,90.60
2018-02-09T05:18:06.411Z,90.80
2018-02-09T05:20:34.715Z,90.30
2018-02-09T05:23:03.830Z,88.30
2018-02-09T05:25:32.186Z,88.30
2018-02-09T05:28:00.488Z,89.10
2018-02-09T05:30:28.816Z,88.80
2018-02-09T05:32:57.111Z,89.10
2018-02-09T05:35:25.440Z,89.70
2018-02-09T05:37:53.799Z,88.00
2018-02-09T05:40:22.100Z,87.00
2018-02-09T05:42:50.427Z,86.30
2018-02-09T05:45:18.736Z,86.00
2018-02-09T05:47:48.078Z,86.40
2018-02-09T05:50:16.378Z,86.50
2018-02-09T05:52:44.683Z,85.50
2018-02-09T05:55:13.025Z,85.50
2018-02-09T05:57:42.123Z,84.60
2018-02-09T06:00:11.481Z,84.50
2018-02-09T06:02:39.778Z,84.50
2018-02-09T06:05:08.816Z,84.60
2018-02-09T06:07:37.156Z,84.40
2018-02-09T06:10:05.452Z,84.50
2018-02-09T06:12:33.763Z,83.20
2018-02-09T06:15:02.093Z,83.90
2018-02-09T06:17:31.158Z,81.20
2018-02-09T06:19:59.447Z,81.30
2018-02-09T06:22:28.065Z,82.20
2018-02-09T06:24:56.356Z,83.30
2018-02-09T06:27:24.648Z,84.90
2018-02-09T06:29:52.981Z,85.50
2018-02-09T06:32:21.331Z,86.50
2018-02-09T06:34:49.648Z,86.40
2018-02-09T06:37:19.006Z,88.60
2018-02-09T06:39:47.305Z,88.50
2018-02-09T06:42:15.602Z,89.50
2018-02-09T06:44:43.948Z,90.00
2018-02-09T06:47:12.248Z,89.40
2018-02-09T06:49:40.585Z,89.80
2018-02-09T06:52:09.177Z,89.80
2018-02-09T06:54:37.472Z,89.20
2018-02-09T06:57:05.767Z,88.60
2018-02-09T06:59:34.096Z,88.40
2018-02-09T07:02:02.429Z,90.20
2018-02-09T07:04:30.900Z,90.70
2018-02-09T07:06:59.208Z,90.60
2018-02-09T07:09:27.550Z,90.30
2018-02-09T07:11:55.886Z,90.70
2018-02-09T07:14:24.188Z,91.40
2018-02-09T07:16:52.780Z,89.90
2018-02-09T07:19:21.073Z,89.90
2018-02-09T07:21:49.367Z,89.70
2018-02-09T07:24:17.708Z,89.20
2018-02-09T07:26:46.030Z,88.70
2018-02-09T07:29:14.399Z,89.00
2018-02-09T07:31:42.713Z,89.30
2018-02-09T07:34:11.102Z,89.40
2018-02-09T07:36:39.427Z,88.70
2018-02-09T07:39:07.745Z,88.60
2018-02-09T07:41:36.073Z,88.70
2018-02-09T07:44:04.485Z,89.10
2018-02-09T07:46:32.840Z,88.70
2018-02-09T07:49:01.225Z,88.30
2018-02-09T07:51:29.522Z,86.70
2018-02-09T07:53:57.817Z,86.70
2018-02-09T07:56:26.147Z,86.90
2018-02-09T07:58:54.456Z,86.70
2018-02-09T08:01:23.522Z,85.20
2018-02-09T08:03:51.875Z,85.20
2018-02-09T08:06:20.177Z,84.80
2018-02-09T08:08:48.507Z,85.20
2018-02-09T08:11:16.900Z,84.90
2018-02-09T08:13:45.236Z,83.40
2018-02-09T08:16:13.660Z,79.50
2018-02-09T08:18:42.065Z,78.90
2018-02-09T08:21:10.369Z,78.70
2018-02-09T08:23:38.973Z,79.10
2018-02-09T08:26:08.092Z,83.10
2018-02-09T08:28:37.192Z,82.60
2018-02-09T08:31:05.524Z,82.60
2018-02-09T08:33:33.844Z,83.60
2018-02-09T08:36:02.280Z,84.10
2018-02-09T08:38:31.350Z,82.90
2018-02-09T08:40:59.664Z,82.90
2018-02-09T08:43:28.151Z,83.70
2018-02-09T08:45:56.453Z,84.10
2018-02-09T08:48:25.549Z,84.20
2018-02-09T08:50:53.964Z,84.20
2018-02-09T08:53:22.278Z,84.00
2018-02-09T08:55:50.595Z,84.20
2018-02-09T08:58:19.184Z,84.10
2018-02-09T09:00:47.477Z,84.20
2018-02-09T09:03:15.811Z,84.00
2018-02-09T09:05:44.949Z,82.90
2018-02-09T09:08:13.305Z,82.90
2018-02-09T09:10:42.383Z,83.00
2018-02-09T09:13:10.681Z,83.10
2018-02-09T09:15:39.369Z,84.00
2018-02-09T09:18:07.681Z,84.20
2018-02-09T09:20:35.982Z,84.20
2018-02-09T09:23:05.352Z,83.80
2018-02-09T09:25:33.675Z,83.80
2018-02-09T09:28:01.972Z,83.90
2018-02-09T09:30:30.315Z,83.80
2018-02-09T09:32:58.612Z,84.00
2018-02-09T09:35:26.940Z,83.80
2018-02-09T09:37:55.236Z,84.20
2018-02-09T09:40:23.649Z,83.80
2018-02-09T09:42:51.971Z,83.50
2018-02-09T09:45:20.445Z,84.00
2018-02-09T09:47:48.794Z,84.20
2018-02-09T09:50:17.097Z,84.60
2018-02-09T09:52:46.197Z,80.90
2018-02-09T09:55:14.492Z,80.80
2018-02-09T09:57:43.592Z,79.10
2018-02-09T10:00:12.659Z,80.70
2018-02-09T10:02:40.989Z,80.70
2018-02-09T10:05:10.097Z,81.10
2018-02-09T10:07:38.436Z,81.10
2018-02-09T10:10:06.785Z,78.70
2018-02-09T10:12:35.139Z,79.20
2018-02-09T10:15:03.477Z,78.90
2018-02-09T10:17:32.540Z,79.40
2018-02-09T10:20:00.895Z,79.50
2018-02-09T10:22:32.993Z,80.00
2018-02-09T10:25:01.569Z,80.40
2018-02-09T10:27:29.895Z,81.50
2018-02-09T10:29:58.209Z,79.30
2018-02-09T10:32:26.547Z,77.10
2018-02-09T10:34:54.849Z,77.40
2018-02-09T10:37:23.181Z,78.60
2018-02-09T10:39:51.508Z,79.50
2018-02-09T10:42:19.844Z,79.60
2018-02-09T10:44:48.157Z,79.30
2018-02-09T10:47:17.281Z,79.10
2018-02-09T10:49:46.368Z,79.00
2018-02-09T10:52:14.669Z,79.00
2018-02-09T10:54:43.759Z,78.60
2018-02-09T10:57:12.056Z,78.70
2018-02-09T10:59:40.402Z,78.70
2018-02-09T11:02:08.696Z,79.50
2018-02-09T11:04:37.053Z,78.20
2018-02-09T11:07:05.357Z,78.30
2018-02-09T11:09:33.672Z,76.60
2018-02-09T11:12:02.265Z,76.80
2018-02-09T11:14:30.595Z,73.20
2018-02-09T11:16:58.930Z,72.60
2018-02-09T11:19:27.273Z,73.20
2018-02-09T11:21:56.402Z,71.10
2018-02-09T11:24:25.481Z,72.30
2018-02-09T11:26:53.953Z,72.30
2018-02-09T11:29:22.249Z,72.20
2018-02-09T11:31:50.539Z,71.70
2018-02-09T11:34:18.913Z,71.90
2018-02-09T11:36:47.212Z,72.40
2018-02-09T11:39:15.551Z,72.40
2018-02-09T11:41:44.648Z,72.80
2018-02-09T11:44:12.937Z,72.80
2018-02-09T11:46:42.003Z,71.70
2018-02-09T11:49:10.344Z,71.70
2018-02-09T11:51:39.414Z,72.10
2018-02-09T11:54:07.717Z,72.10
2018-02-09T11:56:36.068Z,72.20
2018-02-09T11:59:04.365Z,70.90
2018-02-09T12:01:32.656Z,70.90
2018-02-09T12:04:01.003Z,71.40
2018-02-09T12:06:30.064Z,72.60
2018-02-09T12:08:58.391Z,72.60
2018-02-09T12:11:27.445Z,73.60
2018-02-09T12:13:55.776Z,73.50
2018-02-09T12:16:24.066Z,72.40
2018-02-09T12:18:52.363Z,71.60
2018-02-09T12:21:21.475Z,72.40
2018-02-09T12:23:49.777Z,72.40
2018-02-09T12:26:18.829Z,71.80
2018-02-09T12:28:47.264Z,71.80
2018-02-09T12:31:16.326Z,72.10
2018-02-09T12:33:44.617Z,72.10
2018-02-09T12:36:12.937Z,73.00
2018-02-09T12:38:41.223Z,71.50
2018-02-09T12:41:09.550Z,72.00
2018-02-09T12:46:39.918Z,72.80
2018-02-09T12:49:08.268Z,72.80
2018-02-09T12:51:36.568Z,71.50
2018-02-09T12:54:04.896Z,71.80
2018-02-09T12:56:33.187Z,71.50
2018-02-09T12:59:02.278Z,71.50
2018-02-09T13:01:31.360Z,71.90
2018-02-09T13:03:59.680Z,71.80
2018-02-09T13:06:28.913Z,71.00
2018-02-09T13:08:57.232Z,71.00
2018-02-09T13:11:25.572Z,71.40
2018-02-09T13:13:54.677Z,73.00
2018-02-09T13:16:23.731Z,73.30
2018-02-09T13:18:52.020Z,73.30
2018-02-09T13:21:20.344Z,72.70
2018-02-09T13:26:55.427Z,73.00
2018-02-09T13:29:23.719Z,73.00
2018-02-09T13:31:52.012Z,72.40
2018-02-09T13:34:20.342Z,73.00
2018-02-09T13:40:15.788Z,72.40
2018-02-09T13:42:44.124Z,72.60
2018-02-09T13:45:12.700Z,72.60
2018-02-09T13:47:41.756Z,72.90
2018-02-09T13:50:10.083Z,72.80
2018-02-09T13:52:38.456Z,73.50
2018-02-09T13:55:07.524Z,72.00
2018-02-09T13:57:35.831Z,72.00
2018-02-09T14:00:04.428Z,72.20
2018-02-09T14:02:32.895Z,72.50
2018-02-09T14:05:01.215Z,73.30
2018-02-09T14:07:29.538Z,72.30
2018-02-09T14:09:57.844Z,72.70
2018-02-09T14:12:26.207Z,72.60
2018-02-09T14:14:55.264Z,72.40
2018-02-09T14:17:23.588Z,72.40
2018-02-09T14:19:51.904Z,73.20
2018-02-09T14:22:20.960Z,73.50
2018-02-09T14:24:49.303Z,73.50
2018-02-09T14:27:18.369Z,74.10
2018-02-09T14:29:46.702Z,74.00
2018-02-09T14:32:15.776Z,74.40
2018-02-09T14:34:44.181Z,74.30
2018-02-09T14:37:12.520Z,75.20
2018-02-09T14:39:41.565Z,76.10
2018-02-09T14:42:09.857Z,76.40
2018-02-09T14:44:38.196Z,74.20
2018-02-09T14:47:06.555Z,74.40
2018-02-09T14:49:35.648Z,73.90
2018-02-09T14:52:03.970Z,73.90
2018-02-09T14:54:33.035Z,74.50
2018-02-09T14:57:01.787Z,74.60
2018-02-09T14:59:30.180Z,74.70
2018-02-09T15:01:59.253Z,74.50
2018-02-09T15:04:27.659Z,74.50
2018-02-09T15:06:56.392Z,74.10
2018-02-09T15:09:24.752Z,74.20
2018-02-09T15:11:53.836Z,74.90
2018-02-09T15:14:22.203Z,74.90
2018-02-09T15:16:50.566Z,75.20
2018-02-09T15:19:18.872Z,75.20
2018-02-09T15:21:47.182Z,76.00
2018-02-09T15:24:15.534Z,76.50
2018-02-09T15:26:44.675Z,76.50
2018-02-09T15:29:13.110Z,76.40
2018-02-09T15:31:42.255Z,75.30
2018-02-09T15:34:10.577Z,75.30
2018-02-09T15:36:38.882Z,74.90
2018-02-09T15:39:07.336Z,75.10
2018-02-09T15:41:35.684Z,75.70
2018-02-09T15:44:03.986Z,75.50
2018-02-09T15:46:33.072Z,75.20
2018-02-09T15:49:01.447Z,75.20
2018-02-09T15:51:29.783Z,74.70
2018-02-09T15:53:58.081Z,75.30
2018-02-09T15:56:26.451Z,75.20
2018-02-09T15:58:54.862Z,75.60
2018-02-09T16:01:23.177Z,74.80
2018-02-09T16:03:51.753Z,75.00
2018-02-09T16:06:20.088Z,74.50
2018-02-09T16:08:48.483Z,75.40
2018-02-09T16:11:16.809Z,75.40
2018-02-09T16:13:45.875Z,75.50
2018-02-09T16:16:14.216Z,75.50
2018-02-09T16:18:43.278Z,76.20
2018-02-09T16:21:11.992Z,76.20
2018-02-09T16:23:41.079Z,76.60
2018-02-09T16:26:09.371Z,76.60
2018-02-09T16:28:37.741Z,75.50
2018-02-09T16:31:06.076Z,75.00
2018-02-09T16:33:34.408Z,75.60
2018-02-09T16:36:03.356Z,75.50
2018-02-09T16:38:31.698Z,75.30
2018-02-09T16:41:00.041Z,75.70
2018-02-09T16:43:28.373Z,75.60
2018-02-09T16:45:57.432Z,74.70
2018-02-09T16:48:25.916Z,74.70
2018-02-09T16:50:54.959Z,74.30
2018-02-09T16:53:24.048Z,73.80
2018-02-09T16:55:52.481Z,73.70
2018-02-09T16:58:20.814Z,73.40
2018-02-09T17:00:49.110Z,73.10
2018-02-09T17:03:17.425Z,73.00
2018-02-09T17:05:45.769Z,72.40
2018-02-09T17:08:14.237Z,72.70
2018-02-09T17:10:42.539Z,72.70
2018-02-09T17:13:11.141Z,72.50
2018-02-09T17:15:39.466Z,72.40
2018-02-09T17:18:07.757Z,71.90
2018-02-09T17:20:36.127Z,72.50
2018-02-09T17:23:04.451Z,71.60
2018-02-09T17:25:32.754Z,71.60
2018-02-09T17:28:02.014Z,72.30
2018-02-09T17:30:30.323Z,72.30
2018-02-09T17:32:58.630Z,71.60
2018-02-09T17:35:27.205Z,71.60
2018-02-09T17:37:55.508Z,71.90
2018-02-09T17:40:24.640Z,71.90
2018-02-09T17:42:52.974Z,71.90
2018-02-09T17:45:21.293Z,71.60
2018-02-09T17:47:49.581Z,71.70
2018-02-09T17:50:18.188Z,71.20
2018-02-09T17:52:46.485Z,72.50
2018-02-09T17:55:14.777Z,71.90
2018-02-09T17:57:43.100Z,72.50
2018-02-09T18:00:11.447Z,72.50
2018-02-09T18:02:39.787Z,71.70
2018-02-09T18:05:08.276Z,71.70
2018-02-09T18:07:36.672Z,72.40
2018-02-09T18:10:04.975Z,72.40
2018-02-09T18:12:33.561Z,72.90
2018-02-09T18:15:01.856Z,73.10
2018-02-09T18:17:30.164Z,72.40
2018-02-09T18:19:58.535Z,72.90
2018-02-09T18:22:26.835Z,72.40
2018-02-09T18:24:55.180Z,72.90
2018-02-09T18:27:23.468Z,73.10
2018-02-09T18:29:51.848Z,73.20
2018-02-09T18:32:20.136Z,72.90
2018-02-09T18:34:48.455Z,72.60
2018-02-09T18:37:16.794Z,73.00
2018-02-09T18:39:45.121Z,72.80
2018-02-09T18:42:14.239Z,72.90
2018-02-09T18:44:43.303Z,72.90
2018-02-09T18:47:11.628Z,72.90
2018-02-09T18:49:40.688Z,73.20
2018-02-09T18:52:09.042Z,73.20
2018-02-09T18:54:37.377Z,73.20
2018-02-09T18:57:05.669Z,73.30
2018-02-09T18:59:34.314Z,73.10
2018-02-09T19:02:02.613Z,73.30
2018-02-09T19:04:30.906Z,73.50
2018-02-09T19:06:59.332Z,73.10
2018-02-09T19:09:27.624Z,72.80
2018-02-09T19:11:55.923Z,73.20
2018-02-09T19:14:24.330Z,72.70
2018-02-09T19:16:52.729Z,72.60
2018-02-09T19:19:21.039Z,72.20
2018-02-09T19:21:49.368Z,72.30
2018-02-09T19:24:17.656Z,72.10
2018-02-09T19:26:45.964Z,71.50
2018-02-09T19:29:14.572Z,71.30
2018-02-09T19:31:42.880Z,71.00
2018-02-09T19:34:11.945Z,70.50
2018-02-09T19:36:40.280Z,70.30
2018-02-09T19:39:08.576Z,70.60
2018-02-09T19:41:37.692Z,70.80
2018-02-09T19:44:06.050Z,70.90
2018-02-09T19:46:34.416Z,71.00
2018-02-09T19:49:02.723Z,71.50
2018-02-09T19:51:31.428Z,71.30
2018-02-09T19:53:59.728Z,71.00
2018-02-09T19:56:28.093Z,71.50
2018-02-09T19:58:56.428Z,71.30
2018-02-09T20:01:25.524Z,71.00
2018-02-09T20:03:54.607Z,70.70
2018-02-09T20:06:22.932Z,70.50
2018-02-09T20:08:51.998Z,70.30
2018-02-09T20:11:20.297Z,70.30
2018-02-09T20:13:48.894Z,70.50
2018-02-09T20:16:17.181Z,70.80
2018-02-09T20:18:45.489Z,70.80
2018-02-09T20:21:13.946Z,71.00
2018-02-09T20:23:42.235Z,70.50
2018-02-09T20:26:10.548Z,70.70
2018-02-09T20:28:38.881Z,70.80
2018-02-09T20:31:07.224Z,70.30
2018-02-09T20:33:35.543Z,70.90
2018-02-09T20:36:04.625Z,70.90
2018-02-09T20:38:32.915Z,70.90
2018-02-09T20:41:01.301Z,70.90
2018-02-09T20:43:29.596Z,71.00
2018-02-09T20:45:57.930Z,70.50
2018-02-09T20:48:26.235Z,69.50
2018-02-09T20:50:54.555Z,69.60
2018-02-09T20:53:22.889Z,69.80
2018-02-09T20:55:52.048Z,70.00
2018-02-09T20:58:20.360Z,70.00
2018-02-09T21:00:48.696Z,70.40
2018-02-09T21:03:16.990Z,70.20
2018-02-09T21:05:45.588Z,69.20
2018-02-09T21:08:13.881Z,69.30
2018-02-09T21:10:42.233Z,69.50
2018-02-09T21:13:10.568Z,69.80
2018-02-09T21:15:38.881Z,69.70
2018-02-09T21:18:07.223Z,68.90
2018-02-09T21:20:35.538Z,68.40
2018-02-09T21:23:04.049Z,68.40
2018-02-09T21:25:32.413Z,67.70
2018-02-09T21:28:00.731Z,67.40
2018-02-09T21:30:29.325Z,68.20
2018-02-09T21:32:57.625Z,68.10
2018-02-09T21:35:25.953Z,68.80
2018-02-09T21:37:55.061Z,70.70
2018-02-09T21:40:24.137Z,71.20
2018-02-09T21:42:52.532Z,72.00
2018-02-09T21:45:20.797Z,71.50
2018-02-09T21:47:49.080Z,70.90
2018-02-09T21:50:17.478Z,70.10
2018-02-09T21:52:45.795Z,70.00
2018-02-09T21:55:14.116Z,70.30
2018-02-09T21:57:43.215Z,70.20
2018-02-09T22:00:12.308Z,71.40
2018-02-09T22:02:40.597Z,71.00
2018-02-09T22:05:08.913Z,71.50
2018-02-09T22:07:37.252Z,71.90
2018-02-09T22:10:05.559Z,72.70
2018-02-09T22:12:33.844Z,73.00
2018-02-09T22:15:02.191Z,73.20
2018-02-09T22:17:30.492Z,73.20
2018-02-09T22:19:58.798Z,73.00
2018-02-09T22:22:27.121Z,71.70
2018-02-09T22:24:55.416Z,71.70
2018-02-09T22:27:23.841Z,71.80
2018-02-09T22:29:52.133Z,71.30
2018-02-09T22:32:20.435Z,72.60
2018-02-09T22:34:48.775Z,72.80
2018-02-09T22:37:17.072Z,72.50
2018-02-09T22:39:45.401Z,72.80
2018-02-09T22:42:13.708Z,74.40
2018-02-09T22:44:42.056Z,73.60
2018-02-09T22:47:11.122Z,74.30
2018-02-09T22:49:39.487Z,74.20
2018-02-09T22:52:07.785Z,74.60
2018-02-09T22:54:36.073Z,75.20
2018-02-09T22:57:04.416Z,75.80
2018-02-09T22:59:33.508Z,76.70
2018-02-09T23:02:01.863Z,76.60
2018-02-09T23:04:30.240Z,76.90
2018-02-09T23:06:58.545Z,77.50
2018-02-09T23:09:26.868Z,77.80
2018-02-09T23:11:55.459Z,78.10
2018-02-09T23:14:23.757Z,78.20
2018-02-09T23:16:52.054Z,78.30
2018-02-09T23:19:20.381Z,78.70
2018-02-09T23:21:48.692Z,79.80
2018-02-09T23:24:17.073Z,79.10
2018-02-09T23:26:45.369Z,79.20
2018-02-09T23:29:13.712Z,79.40
2018-02-09T23:31:42.005Z,79.60
2018-02-09T23:34:11.062Z,80.30
2018-02-09T23:36:39.584Z,80.30
2018-02-09T23:39:07.961Z,80.30
2018-02-09T23:41:36.251Z,80.70
2018-02-09T23:44:04.591Z,81.40
2018-02-09T23:46:33.652Z,83.60
2018-02-09T23:49:01.988Z,82.90
2018-02-09T23:51:31.062Z,83.70
2018-02-09T23:53:59.355Z,83.70
2018-02-09T23:56:27.822Z,84.20
2018-02-09T23:58:56.219Z,84.60
